Time;durP1;ratioP1;P1;durP2;ratioP2;P2;SDS_P1;SDS_P2;PMS_P1;PMS_P2;Temp;Humidity;BMP_temperature;BMP_pressure;BME280_temperature;BME280_humidity;BME280_pressure;Samples;Min_cycle;Max_cycle;Signal;HPM_P1;HPM_P2
2021/09/04 00:00:07;;;;;;;28.60;25.60;;;;;;;13.11;74.08;100619.23;116844;1186;21875;-79
2021/09/04 00:02:56;;;;;;;28.10;25.10;;;;;;;13.10;74.09;100615.87;117122;1185;22925;-79
2021/09/04 00:05:26;;;;;;;30.40;24.80;;;;;;;13.08;74.04;100615.80;116643;1191;23441;-78
2021/09/04 00:07:56;;;;;;;29.20;26.20;;;;;;;13.05;73.87;100615.34;116657;1190;22319;-79
2021/09/04 00:10:25;;;;;;;28.80;24.70;;;;;;;13.02;73.75;100613.38;116606;1190;21884;-79
2021/09/04 00:12:55;;;;;;;28.20;24.40;;;;;;;13.00;73.86;100614.75;116599;1189;23446;-79
2021/09/04 00:15:26;;;;;;;27.90;24.90;;;;;;;12.97;73.82;100615.06;116637;1190;23611;-79
2021/09/04 00:17:55;;;;;;;28.00;23.90;;;;;;;12.95;74.01;100616.18;116668;1188;21897;-79
2021/09/04 00:20:24;;;;;;;26.20;22.70;;;;;;;12.93;74.11;100619.28;116582;1189;23476;-80
2021/09/04 00:22:53;;;;;;;28.80;25.70;;;;;;;12.90;74.04;100619.16;116605;1188;23535;-80
2021/09/04 00:25:21;;;;;;;26.50;23.90;;;;;;;12.88;74.04;100621.57;116953;1188;21928;-80
2021/09/04 00:27:50;;;;;;;28.40;24.40;;;;;;;12.85;73.97;100624.81;117115;1185;21889;-78
2021/09/04 00:30:20;;;;;;;28.70;25.80;;;;;;;12.81;74.02;100626.82;117156;1186;23611;-78
2021/09/04 00:32:49;;;;;;;31.20;26.60;;;;;;;12.77;73.97;100627.11;116954;1186;21883;-78
2021/09/04 00:35:17;;;;;;;29.40;25.60;;;;;;;12.74;74.04;100629.02;117116;1185;22837;-79
2021/09/04 00:37:46;;;;;;;28.40;24.20;;;;;;;12.70;73.99;100631.55;117242;1184;23476;-79
2021/09/04 00:40:15;;;;;;;30.00;24.60;;;;;;;12.66;73.91;100629.95;117201;1185;21930;-80
2021/09/04 00:42:44;;;;;;;28.50;24.80;;;;;;;12.62;73.95;100632.73;117081;1185;21884;-78
2021/09/04 00:45:13;;;;;;;23.40;20.90;;;;;;;12.58;74.05;100631.92;117083;1185;23003;-79
2021/09/04 00:48:00;;;;;;;28.00;23.70;;;;;;;12.55;74.28;100633.66;116909;1188;22918;-78
2021/09/04 00:50:34;;;;;;;25.80;22.50;;;;;;;12.51;74.28;100630.01;117084;1188;23630;-79
2021/09/04 00:53:04;;;;;;;26.70;23.30;;;;;;;12.49;74.36;100629.25;117094;1185;22523;-77
2021/09/04 00:55:33;;;;;;;27.30;24.30;;;;;;;12.46;74.47;100631.64;117194;1183;21886;-80
2021/09/04 00:58:02;;;;;;;24.70;22.10;;;;;;;12.43;74.53;100628.98;117037;1185;21879;-77
2021/09/04 01:00:32;;;;;;;25.40;22.50;;;;;;;12.42;74.57;100628.63;117195;1179;21913;-78
2021/09/04 01:03:01;;;;;;;25.40;22.90;;;;;;;12.41;74.60;100626.29;117216;1186;21973;-78
2021/09/04 01:05:31;;;;;;;27.50;24.70;;;;;;;12.38;74.54;100623.73;117066;1185;21907;-79
2021/09/04 01:08:00;;;;;;;26.30;23.50;;;;;;;12.35;74.63;100623.02;117046;1187;22099;-79
2021/09/04 01:10:31;;;;;;;25.20;22.10;;;;;;;12.32;74.53;100622.50;117116;1184;24119;-79
2021/09/04 01:13:00;;;;;;;25.20;22.60;;;;;;;12.29;74.63;100626.52;117275;1182;24146;-79
2021/09/04 01:15:29;;;;;;;25.50;22.70;;;;;;;12.26;74.69;100630.02;117047;1185;21901;-79
2021/09/04 01:18:04;;;;;;;26.40;23.60;;;;;;;12.22;74.65;100630.95;116930;1185;21866;-80
2021/09/04 01:20:33;;;;;;;25.60;22.90;;;;;;;12.21;75.03;100629.68;116647;1185;23455;-79
2021/09/04 01:23:02;;;;;;;25.80;22.70;;;;;;;12.20;75.09;100631.59;116663;1191;23633;-81
2021/09/04 01:25:33;;;;;;;26.30;23.50;;;;;;;12.18;74.98;100634.12;116762;1190;23002;-79
2021/09/04 01:28:03;;;;;;;26.20;23.40;;;;;;;12.15;74.94;100637.11;116689;1189;21898;-79
2021/09/04 01:30:34;;;;;;;24.70;22.10;;;;;;;12.11;74.99;100636.27;116663;1188;23548;-79
2021/09/04 01:33:03;;;;;;;26.40;22.40;;;;;;;12.09;75.01;100637.09;116618;1191;22908;-80
2021/09/04 01:35:32;;;;;;;30.50;22.10;;;;;;;12.06;75.01;100635.09;116613;1188;21847;-79
2021/09/04 01:38:01;;;;;;;25.90;23.20;;;;;;;12.03;75.03;100629.93;116577;1186;21887;-80
2021/09/04 01:40:31;;;;;;;28.60;22.60;;;;;;;12.00;75.00;100627.66;116889;1186;21890;-79
2021/09/04 01:43:00;;;;;;;26.00;23.40;;;;;;;11.97;75.00;100626.39;117034;1185;23549;-78
2021/09/04 01:45:29;;;;;;;25.20;22.10;;;;;;;11.93;75.02;100628.02;117041;1185;23437;-78
2021/09/04 01:47:58;;;;;;;27.00;22.50;;;;;;;11.90;75.09;100630.33;116873;1187;21991;-79
2021/09/04 01:50:28;;;;;;;31.70;23.20;;;;;;;11.88;75.29;100635.14;116924;1186;22842;-78
2021/09/04 01:52:57;;;;;;;32.00;23.60;;;;;;;11.85;75.38;100628.98;116928;1185;23550;-79
2021/09/04 01:55:26;;;;;;;28.20;25.40;;;;;;;11.82;75.37;100626.61;116892;1185;21882;-78
2021/09/04 01:57:56;;;;;;;30.20;24.80;;;;;;;11.78;75.37;100629.97;116906;1186;21887;-79
2021/09/04 02:00:24;;;;;;;30.40;25.10;;;;;;;11.75;75.45;100630.48;116958;1185;22108;-78
2021/09/04 02:02:53;;;;;;;30.00;25.60;;;;;;;11.73;75.55;100629.15;117040;1187;21878;-79
2021/09/04 02:05:23;;;;;;;30.40;27.10;;;;;;;11.70;75.51;100629.64;116939;1185;21861;-79
2021/09/04 02:07:51;;;;;;;30.20;26.70;;;;;;;11.67;75.56;100628.54;116959;1185;22842;-79
2021/09/04 02:10:20;;;;;;;31.60;25.00;;;;;;;11.65;75.78;100627.25;116868;1185;21877;-78
2021/09/04 02:12:49;;;;;;;34.60;24.20;;;;;;;11.62;75.84;100623.85;116910;1187;21876;-79
2021/09/04 02:15:18;;;;;;;29.50;25.80;;;;;;;11.60;75.78;100627.45;116919;1185;22858;-78
2021/09/04 02:17:48;;;;;;;29.40;23.60;;;;;;;11.58;75.89;100627.69;117028;1185;21896;-78
2021/09/04 02:20:18;;;;;;;27.30;24.30;;;;;;;11.56;75.90;100623.42;117044;1185;21882;-79
2021/09/04 02:22:47;;;;;;;28.60;24.90;;;;;;;11.54;75.92;100624.06;116925;1185;21875;-79
2021/09/04 02:25:16;;;;;;;31.20;27.00;;;;;;;11.52;76.00;100629.19;117141;1185;23254;-79
2021/09/04 02:27:45;;;;;;;27.80;24.70;;;;;;;11.51;76.12;100626.25;116923;1187;21890;-79
2021/09/04 02:30:15;;;;;;;28.90;25.30;;;;;;;11.50;76.21;100628.15;116884;1185;22847;-79
2021/09/04 02:32:45;;;;;;;29.20;26.10;;;;;;;11.48;76.23;100628.89;116866;1187;23608;-79
2021/09/04 02:35:14;;;;;;;28.20;25.20;;;;;;;11.46;76.32;100629.98;116881;1185;22901;-79
2021/09/04 02:37:44;;;;;;;32.00;28.60;;;;;;;11.45;76.23;100635.03;116968;1185;23463;-79
2021/09/04 02:40:13;;;;;;;31.10;26.70;;;;;;;11.43;76.27;100633.28;117049;1184;24228;-79
2021/09/04 02:42:42;;;;;;;31.70;25.90;;;;;;;11.41;76.28;100637.78;116896;1185;21891;-80
2021/09/04 02:45:11;;;;;;;27.30;24.50;;;;;;;11.38;76.14;100636.03;116907;1185;23558;-78
2021/09/04 02:47:40;;;;;;;28.00;24.60;;;;;;;11.33;76.16;100639.54;117048;1185;21895;-79
2021/09/04 02:50:10;;;;;;;25.70;22.90;;;;;;;11.28;75.94;100640.92;116926;1185;22858;-79
2021/09/04 02:52:40;;;;;;;25.30;22.60;;;;;;;11.24;76.06;100639.45;116895;1186;21899;-79
2021/09/04 02:55:11;;;;;;;25.40;22.80;;;;;;;11.19;76.03;100639.20;116907;1185;21882;-78
2021/09/04 02:57:40;;;;;;;27.40;22.20;;;;;;;11.16;76.22;100642.77;116977;1185;23535;-79
2021/09/04 03:00:12;;;;;;;26.00;22.30;;;;;;;11.12;76.17;100642.15;117074;1184;23559;-79
2021/09/04 03:02:45;;;;;;;26.30;23.40;;;;;;;11.09;76.33;100642.27;116870;1187;24151;-79
2021/09/04 03:05:16;;;;;;;26.70;23.90;;;;;;;11.06;76.34;100645.88;116989;1185;21882;-79
2021/09/04 03:07:45;;;;;;;25.30;22.70;;;;;;;11.05;76.50;100642.37;116873;1185;23543;-80
2021/09/04 03:10:15;;;;;;;25.60;22.40;;;;;;;11.02;76.44;100644.05;116955;1185;21884;-79
2021/09/04 03:12:46;;;;;;;26.40;22.80;;;;;;;10.98;76.36;100643.81;117112;1184;24144;-79
2021/09/04 03:15:16;;;;;;;27.90;22.90;;;;;;;10.95;76.51;100636.41;117027;1185;21885;-78
2021/09/04 03:17:45;;;;;;;28.30;23.50;;;;;;;10.92;76.45;100640.47;116830;1185;22799;-80
2021/09/04 03:20:15;;;;;;;28.40;23.60;;;;;;;10.88;76.38;100634.61;116729;1188;24410;-78
2021/09/04 03:22:44;;;;;;;28.20;23.20;;;;;;;10.86;76.51;100638.90;116641;1188;21889;-79
2021/09/04 03:25:14;;;;;;;28.10;24.60;;;;;;;10.83;76.51;100643.95;116641;1188;23463;-79
2021/09/04 03:27:43;;;;;;;29.20;24.90;;;;;;;10.81;76.64;100647.15;116834;1187;21891;-78
2021/09/04 03:30:12;;;;;;;29.00;26.00;;;;;;;10.81;76.72;100646.63;116784;1186;22108;-78
2021/09/04 03:32:42;;;;;;;28.70;25.80;;;;;;;10.79;76.88;100649.49;116842;1182;22904;-79
2021/09/04 03:35:12;;;;;;;27.70;24.80;;;;;;;10.78;76.77;100653.10;116735;1188;21896;-79
2021/09/04 03:37:42;;;;;;;28.90;25.30;;;;;;;10.77;76.83;100660.65;116780;1186;22859;-79
2021/09/04 03:40:12;;;;;;;28.90;25.80;;;;;;;10.76;76.87;100663.23;117097;1184;21898;-77
2021/09/04 03:42:42;;;;;;;30.30;27.10;;;;;;;10.75;77.00;100664.33;116927;1185;24147;-77
2021/09/04 03:45:11;;;;;;;30.60;27.20;;;;;;;10.74;76.96;100662.49;116951;1185;21884;-75
2021/09/04 03:47:41;;;;;;;32.30;28.80;;;;;;;10.74;77.01;100662.03;116875;1187;22008;-78
2021/09/04 03:50:11;;;;;;;31.30;27.20;;;;;;;10.75;77.27;100666.50;117073;1185;22108;-78
2021/09/04 03:52:41;;;;;;;32.70;29.40;;;;;;;10.76;77.49;100668.29;117105;1185;22854;-75
2021/09/04 03:55:10;;;;;;;31.20;28.00;;;;;;;10.77;77.63;100665.58;116931;1185;22158;-76
2021/09/04 03:57:41;;;;;;;33.10;29.90;;;;;;;10.79;77.80;100668.00;116946;1185;22850;-75
2021/09/04 04:00:11;;;;;;;29.90;26.30;;;;;;;10.81;77.84;100669.88;116974;1185;23503;-76
2021/09/04 04:02:40;;;;;;;34.30;29.30;;;;;;;10.83;77.97;100668.97;116948;1185;23593;-76
2021/09/04 04:05:15;;;;;;;30.20;26.00;;;;;;;10.86;78.20;100667.69;116928;1181;23461;-77
2021/09/04 04:07:47;;;;;;;26.90;22.30;;;;;;;10.88;78.33;100668.08;117054;1185;21961;-76
2021/09/04 04:10:17;;;;;;;25.10;22.20;;;;;;;10.90;78.40;100665.08;116861;1185;23540;-76
2021/09/04 04:12:46;;;;;;;24.50;21.00;;;;;;;10.92;78.47;100664.88;117038;1185;21899;-76
2021/09/04 04:15:18;;;;;;;24.60;21.60;;;;;;;10.95;78.55;100666.73;116732;1188;21915;-75
2021/09/04 04:17:49;;;;;;;24.10;19.30;;;;;;;10.97;78.64;100670.73;116599;1189;23546;-76
2021/09/04 04:20:18;;;;;;;20.80;18.10;;;;;;;10.99;78.74;100671.70;116593;1189;21918;-76
2021/09/04 04:22:49;;;;;;;22.40;18.10;;;;;;;11.01;78.81;100676.73;116667;1188;21890;-76
2021/09/04 04:25:19;;;;;;;19.50;17.40;;;;;;;11.05;78.91;100679.89;116500;1189;23586;-76
2021/09/04 04:27:49;;;;;;;21.10;18.30;;;;;;;11.09;78.93;100683.02;116581;1191;21914;-76
2021/09/04 04:30:18;;;;;;;23.30;16.80;;;;;;;11.12;79.10;100679.45;116625;1189;22627;-76
2021/09/04 04:32:48;;;;;;;26.20;18.10;;;;;;;11.15;79.02;100678.70;116731;1188;23569;-75
2021/09/04 04:35:17;;;;;;;23.80;17.20;;;;;;;11.17;79.09;100678.08;117161;1185;21886;-76
2021/09/04 04:37:46;;;;;;;22.20;17.20;;;;;;;11.21;79.08;100680.86;117095;1185;21891;-76
2021/09/04 04:40:16;;;;;;;21.00;16.80;;;;;;;11.24;79.28;100685.42;117102;1185;24119;-76
2021/09/04 04:42:47;;;;;;;20.40;17.10;;;;;;;11.26;79.19;100684.48;117077;1185;24135;-76
2021/09/04 04:45:16;;;;;;;20.60;17.20;;;;;;;11.29;79.16;100689.63;117018;1185;23439;-76
2021/09/04 04:47:46;;;;;;;22.50;18.10;;;;;;;11.33;79.15;100691.91;117046;1185;21895;-76
2021/09/04 04:50:19;;;;;;;18.30;16.40;;;;;;;11.36;79.20;100689.30;117134;1184;23530;-76
2021/09/04 04:52:48;;;;;;;19.10;17.10;;;;;;;11.39;79.33;100686.30;116917;1185;21891;-76
2021/09/04 04:55:18;;;;;;;20.10;16.80;;;;;;;11.44;79.33;100689.50;116850;1186;23537;-76
2021/09/04 04:57:47;;;;;;;22.80;17.20;;;;;;;11.48;79.27;100687.48;116657;1188;21879;-76
2021/09/04 05:00:17;;;;;;;19.00;15.90;;;;;;;11.52;79.36;100687.05;116744;1187;21886;-76
2021/09/04 05:02:46;;;;;;;17.20;15.40;;;;;;;11.56;79.35;100692.80;116523;1190;23433;-77
2021/09/04 05:05:16;;;;;;;19.60;17.10;;;;;;;11.58;79.19;100690.41;116819;1187;22132;-75
2021/09/04 05:07:45;;;;;;;18.80;16.40;;;;;;;11.63;79.21;100690.48;116625;1188;21894;-76
2021/09/04 05:10:14;;;;;;;19.00;15.50;;;;;;;11.68;79.25;100691.45;116733;1184;23394;-77
2021/09/04 05:12:44;;;;;;;22.50;17.60;;;;;;;11.74;79.28;100691.11;116789;1187;21888;-79
2021/09/04 05:15:13;;;;;;;19.60;16.80;;;;;;;11.79;79.16;100688.49;116677;1188;23476;-77
2021/09/04 05:17:44;;;;;;;20.10;17.70;;;;;;;11.84;79.18;100683.91;117024;1185;21926;-76
2021/09/04 05:20:13;;;;;;;20.70;18.60;;;;;;;11.90;79.08;100683.77;117138;1184;21875;-76
2021/09/04 05:22:43;;;;;;;22.00;17.60;;;;;;;11.96;78.96;100687.57;116950;1184;21940;-76
2021/09/04 05:25:17;;;;;;;22.10;18.20;;;;;;;12.01;78.89;100691.42;117098;1184;23557;-77
2021/09/04 05:27:46;;;;;;;23.50;17.80;;;;;;;12.05;78.70;100693.61;117171;1184;21877;-76
2021/09/04 05:30:15;;;;;;;22.30;18.50;;;;;;;12.04;78.43;100695.30;117224;1184;21874;-75
2021/09/04 05:32:44;;;;;;;21.20;17.60;;;;;;;12.06;78.48;100698.77;117081;1185;21895;-75
2021/09/04 05:35:13;;;;;;;21.30;17.90;;;;;;;12.11;78.57;100701.77;117014;1185;21892;-77
2021/09/04 05:37:42;;;;;;;20.30;18.00;;;;;;;12.19;78.63;100701.63;116868;1187;22118;-76
2021/09/04 05:40:11;;;;;;;23.30;19.90;;;;;;;12.27;78.65;100703.21;116647;1187;23687;-75
2021/09/04 05:42:40;;;;;;;21.20;18.50;;;;;;;12.36;78.68;100705.58;116656;1188;21885;-75
2021/09/04 05:45:10;;;;;;;23.30;18.60;;;;;;;12.44;78.60;100709.39;116688;1188;21887;-77
2021/09/04 05:47:39;;;;;;;23.00;18.70;;;;;;;12.55;78.59;100710.51;116743;1188;23442;-79
2021/09/04 05:50:09;;;;;;;23.90;19.90;;;;;;;12.65;78.63;100715.57;116714;1188;23578;-78
2021/09/04 05:52:38;;;;;;;19.70;17.70;;;;;;;12.78;78.61;100716.48;116770;1187;23564;-79
2021/09/04 05:55:07;;;;;;;21.80;17.30;;;;;;;12.87;78.23;100714.17;116678;1188;23616;-78
2021/09/04 05:57:37;;;;;;;19.30;17.10;;;;;;;13.00;78.24;100708.40;116582;1184;22789;-79
2021/09/04 06:00:06;;;;;;;18.40;16.50;;;;;;;13.19;78.46;100712.61;116935;1182;21880;-79
2021/09/04 06:02:43;;;;;;;19.10;15.80;;;;;;;13.46;78.93;100713.63;117182;1184;24141;-78
2021/09/04 06:05:12;;;;;;;21.80;17.40;;;;;;;13.77;78.88;100715.13;117202;1184;23548;-78
2021/09/04 06:07:42;;;;;;;20.90;16.70;;;;;;;14.09;78.65;100716.61;117095;1188;21886;-79
2021/09/04 06:10:11;;;;;;;23.00;15.50;;;;;;;14.43;77.84;100718.98;117117;1181;22890;-78
2021/09/04 06:12:41;;;;;;;17.50;14.50;;;;;;;14.71;76.65;100719.40;117035;1186;21879;-79
2021/09/04 06:15:11;;;;;;;17.10;14.30;;;;;;;15.06;76.71;100721.61;117137;1184;21955;-81
2021/09/04 06:17:40;;;;;;;16.10;14.00;;;;;;;15.49;76.10;100723.26;116988;1184;22899;-76
2021/09/04 06:20:17;;;;;;;18.40;13.60;;;;;;;15.90;74.90;100724.70;116910;1184;21881;-76
2021/09/04 06:22:51;;;;;;;17.20;14.00;;;;;;;16.27;73.16;100726.11;116967;1186;21883;-77
2021/09/04 06:25:20;;;;;;;20.50;15.00;;;;;;;16.55;71.91;100726.43;116952;1184;21911;-76
2021/09/04 06:27:49;;;;;;;15.80;13.10;;;;;;;16.85;70.94;100723.92;116917;1182;22709;-78
2021/09/04 06:30:19;;;;;;;15.40;12.60;;;;;;;17.12;69.45;100723.48;117013;1181;21897;-79
2021/09/04 06:32:48;;;;;;;14.40;12.00;;;;;;;17.25;67.64;100725.15;116732;1188;21916;-78
2021/09/04 06:35:17;;;;;;;15.40;12.40;;;;;;;17.33;66.96;100724.98;116974;1183;21911;-79
2021/09/04 06:37:47;;;;;;;14.90;11.40;;;;;;;17.46;67.21;100724.08;116959;1182;23549;-78
2021/09/04 06:40:16;;;;;;;14.30;10.70;;;;;;;17.74;67.04;100729.09;116915;1184;23547;-79
2021/09/04 06:42:45;;;;;;;15.90;12.00;;;;;;;18.01;65.86;100733.02;116960;1185;22595;-79
2021/09/04 06:45:14;;;;;;;13.20;11.80;;;;;;;18.12;64.40;100737.05;116983;1185;21833;-79
2021/09/04 06:47:43;;;;;;;16.10;12.30;;;;;;;18.16;63.57;100744.03;116939;1186;23552;-79
2021/09/04 06:50:12;;;;;;;14.60;11.50;;;;;;;18.24;63.83;100748.05;116781;1188;21887;-78
2021/09/04 06:52:43;;;;;;;16.50;11.20;;;;;;;18.34;63.20;100747.90;116785;1188;24370;-78
2021/09/04 06:55:12;;;;;;;14.00;11.00;;;;;;;18.48;63.08;100750.13;116745;1190;22989;-77
2021/09/04 06:57:41;;;;;;;12.30;10.90;;;;;;;18.79;63.19;100748.16;116640;1188;22924;-77
2021/09/04 07:00:11;;;;;;;13.00;9.90;;;;;;;19.04;61.57;100745.67;116591;1188;21888;-77
2021/09/04 07:02:39;;;;;;;11.10;9.40;;;;;;;19.06;60.05;100743.11;116630;1185;21885;-76
2021/09/04 07:05:09;;;;;;;10.80;9.00;;;;;;;18.98;59.31;100744.23;116642;1184;21893;-76
2021/09/04 07:07:39;;;;;;;12.20;9.50;;;;;;;18.85;59.52;100746.67;116747;1187;21877;-76
2021/09/04 07:10:09;;;;;;;11.80;9.50;;;;;;;18.77;59.74;100745.86;117096;1185;22911;-77
2021/09/04 07:12:38;;;;;;;12.30;10.30;;;;;;;18.84;59.84;100749.75;116999;1183;22723;-76
2021/09/04 07:15:08;;;;;;;10.80;9.70;;;;;;;18.88;59.49;100748.17;117284;1184;21895;-77
2021/09/04 07:17:38;;;;;;;10.60;8.40;;;;;;;18.90;59.28;100749.15;117019;1184;22837;-78
2021/09/04 07:20:08;;;;;;;12.80;10.00;;;;;;;18.97;59.35;100751.48;116827;1190;21902;-79
2021/09/04 07:22:38;;;;;;;11.50;10.20;;;;;;;19.09;59.15;100749.15;116821;1185;21902;-78
2021/09/04 07:25:09;;;;;;;13.60;9.90;;;;;;;19.25;59.11;100751.98;116526;1192;21893;-78
2021/09/04 07:27:38;;;;;;;17.40;9.00;;;;;;;19.40;58.51;100754.16;116496;1193;22933;-79
2021/09/04 07:30:09;;;;;;;10.40;9.00;;;;;;;19.45;57.65;100755.39;116529;1192;22931;-78
2021/09/04 07:32:38;;;;;;;9.80;8.80;;;;;;;19.55;57.58;100754.71;116584;1192;22943;-78
2021/09/04 07:35:08;;;;;;;11.20;8.60;;;;;;;19.83;58.28;100755.92;116665;1192;22633;-78
2021/09/04 07:37:37;;;;;;;9.50;8.50;;;;;;;20.28;57.98;100754.65;116230;1196;22722;-78
2021/09/04 07:40:08;;;;;;;8.80;7.60;;;;;;;20.56;56.30;100757.35;116216;1196;21888;-79
2021/09/04 07:42:37;;;;;;;10.80;7.80;;;;;;;20.74;55.04;100758.67;116340;1195;21906;-78
2021/09/04 07:45:07;;;;;;;9.90;7.40;;;;;;;20.87;54.52;100758.41;116589;1191;21888;-79
2021/09/04 07:47:36;;;;;;;8.30;6.80;;;;;;;21.13;54.20;100763.61;116654;1190;22604;-80
2021/09/04 07:50:06;;;;;;;9.00;6.60;;;;;;;21.32;52.33;100770.76;116655;1191;23084;-78
2021/09/04 07:52:36;;;;;;;9.10;7.20;;;;;;;21.09;50.92;100775.55;116851;1193;21926;-78
2021/09/04 07:55:07;;;;;;;10.80;7.30;;;;;;;20.76;51.07;100772.95;116725;1190;22889;-78
2021/09/04 07:57:36;;;;;;;9.00;6.70;;;;;;;20.58;51.97;100773.41;116660;1190;21904;-79
2021/09/04 08:00:08;;;;;;;7.90;7.10;;;;;;;20.68;52.53;100774.45;116816;1188;22622;-79
2021/09/04 08:02:41;;;;;;;8.50;6.20;;;;;;;20.83;51.50;100774.23;116904;1190;21851;-77
2021/09/04 08:05:10;;;;;;;7.10;6.40;;;;;;;20.85;50.74;100775.45;116974;1188;22045;-78
2021/09/04 08:07:40;;;;;;;7.50;6.50;;;;;;;20.93;50.89;100772.10;116958;1188;21920;-78
2021/09/04 08:10:09;;;;;;;8.00;6.20;;;;;;;20.91;50.41;100776.98;116827;1193;21887;-78
2021/09/04 08:12:39;;;;;;;7.00;5.60;;;;;;;21.07;51.61;100778.14;116480;1189;21899;-79
2021/09/04 08:15:11;;;;;;;10.20;5.30;;;;;;;21.40;50.38;100780.11;116296;1190;22610;-78
2021/09/04 08:17:40;;;;;;;7.60;5.50;;;;;;;21.59;49.32;100779.31;116600;1188;22979;-78
2021/09/04 08:20:10;;;;;;;7.70;6.00;;;;;;;21.72;48.66;100776.52;116528;1191;22642;-78
2021/09/04 08:22:40;;;;;;;9.10;5.70;;;;;;;21.88;48.39;100775.41;116562;1188;21900;-78
2021/09/04 08:25:09;;;;;;;6.50;5.00;;;;;;;22.02;48.08;100777.91;116656;1190;21945;-78
2021/09/04 08:27:38;;;;;;;7.20;5.10;;;;;;;22.14;47.71;100776.63;116687;1191;21889;-78
2021/09/04 08:30:08;;;;;;;6.70;5.00;;;;;;;22.30;47.17;100778.20;117203;1189;24179;-79
2021/09/04 08:32:40;;;;;;;6.00;4.90;;;;;;;22.29;46.18;100782.04;117307;1190;22632;-79
2021/09/04 08:35:09;;;;;;;4.80;4.30;;;;;;;22.33;45.91;100786.92;116908;1190;22890;-79
2021/09/04 08:37:43;;;;;;;5.80;3.80;;;;;;;22.31;44.84;100790.33;117111;1190;21906;-79
2021/09/04 08:40:12;;;;;;;5.00;3.70;;;;;;;22.27;44.34;100790.29;116912;1190;21837;-78
2021/09/04 08:42:41;;;;;;;6.20;4.20;;;;;;;22.29;44.62;100792.70;116810;1192;21898;-78
2021/09/04 08:45:11;;;;;;;7.00;5.00;;;;;;;22.37;44.16;100792.77;117143;1190;22002;-78
2021/09/04 08:47:43;;;;;;;6.20;4.70;;;;;;;22.39;43.77;100792.29;117083;1189;21914;-78
2021/09/04 08:50:13;;;;;;;7.20;4.40;;;;;;;22.48;43.51;100789.04;116711;1190;23549;-79
2021/09/04 08:52:42;;;;;;;7.70;4.70;;;;;;;22.40;42.95;100789.34;117099;1187;21931;-78
2021/09/04 08:55:11;;;;;;;5.40;4.80;;;;;;;22.29;43.68;100788.83;117014;1189;23471;-78
2021/09/04 08:57:41;;;;;;;5.30;4.70;;;;;;;22.18;43.54;100793.14;116915;1184;21894;-77
2021/09/04 09:00:10;;;;;;;5.10;4.40;;;;;;;21.99;44.03;100789.44;116968;1184;21870;-77
2021/09/04 09:02:44;;;;;;;6.60;4.30;;;;;;;22.03;45.11;100788.98;117136;1188;21891;-78
2021/09/04 09:05:14;;;;;;;6.80;4.20;;;;;;;22.11;44.31;100783.95;117203;1187;22832;-78
2021/09/04 09:07:46;;;;;;;6.00;4.80;;;;;;;22.17;43.82;100790.68;117025;1188;21881;-77
2021/09/04 09:10:22;;;;;;;5.90;4.50;;;;;;;22.10;43.76;100788.09;117166;1185;23429;-77
2021/09/04 09:12:52;;;;;;;7.00;5.50;;;;;;;22.19;43.99;100786.70;117373;1184;23545;-78
2021/09/04 09:15:29;;;;;;;5.00;4.50;;;;;;;22.30;43.61;100783.96;117378;1181;23539;-77
2021/09/04 09:18:11;;;;;;;6.50;4.40;;;;;;;22.39;43.25;100787.83;117310;1185;21883;-77
2021/09/04 09:20:46;;;;;;;7.40;4.20;;;;;;;22.56;43.07;100789.03;117188;1184;22899;-78
2021/09/04 09:23:18;;;;;;;5.20;4.70;;;;;;;22.62;42.60;100791.87;117398;1187;21972;-77
2021/09/04 09:25:48;;;;;;;6.90;4.80;;;;;;;22.65;42.30;100791.22;117503;1186;22564;-79
2021/09/04 09:28:21;;;;;;;4.60;3.60;;;;;;;22.67;42.39;100795.08;117265;1186;21900;-78
2021/09/04 09:30:56;;;;;;;4.70;3.90;;;;;;;22.80;42.26;100797.84;117558;1185;23460;-78
2021/09/04 09:33:27;;;;;;;4.70;3.80;;;;;;;22.82;40.85;100797.17;117451;1185;23744;-78
2021/09/04 09:35:59;;;;;;;5.00;4.20;;;;;;;22.81;40.98;100793.44;117199;1185;24129;-78
2021/09/04 09:38:34;;;;;;;6.40;4.40;;;;;;;22.82;41.16;100787.90;117252;1185;23560;-77
2021/09/04 09:41:06;;;;;;;5.30;3.90;;;;;;;22.93;41.32;100793.13;117179;1184;21886;-78
2021/09/04 09:43:35;;;;;;;7.20;4.20;;;;;;;23.02;40.76;100795.20;117238;1181;22776;-79
2021/09/04 09:46:10;;;;;;;5.40;4.30;;;;;;;23.08;40.87;100794.11;117366;1182;23428;-78
2021/09/04 09:48:40;;;;;;;5.50;3.90;;;;;;;23.16;40.01;100793.65;117115;1185;23536;-78
2021/09/04 09:51:12;;;;;;;6.70;4.80;;;;;;;23.17;40.19;100792.09;117029;1184;22278;-78
2021/09/04 09:53:43;;;;;;;5.20;4.40;;;;;;;23.29;40.04;100792.58;117177;1184;23469;-80
2021/09/04 09:56:12;;;;;;;5.50;5.00;;;;;;;23.33;39.42;100793.02;117404;1181;21886;-85
2021/09/04 09:58:43;;;;;;;4.60;3.70;;;;;;;23.35;40.37;100787.80;117211;1186;22807;-82
2021/09/04 10:01:13;;;;;;;;;;;;;;;23.64;40.37;100788.84;117111;1190;21964;-83
2021/09/04 10:03:43;;;;;;;5.00;4.10;;;;;;;23.88;39.89;100789.44;117342;1187;21906;-83
2021/09/04 10:06:13;;;;;;;5.00;4.00;;;;;;;24.05;38.96;100788.29;117185;1187;21874;-83
2021/09/04 10:08:43;;;;;;;9.60;5.00;;;;;;;24.11;38.41;100789.25;117112;1187;21903;-82
2021/09/04 10:11:12;;;;;;;5.80;4.00;;;;;;;24.14;38.17;100784.05;116785;1193;21899;-82
2021/09/04 10:13:41;;;;;;;5.80;4.80;;;;;;;24.30;38.46;100784.89;116794;1187;23521;-82
2021/09/04 10:16:11;;;;;;;6.20;4.80;;;;;;;24.54;37.92;100784.15;116519;1193;22001;-83
2021/09/04 10:18:41;;;;;;;5.30;4.80;;;;;;;24.63;37.15;100784.02;116373;1194;23487;-83
2021/09/04 10:21:13;;;;;;;5.40;4.60;;;;;;;24.85;37.51;100780.48;116208;1197;22892;-83
2021/09/04 10:23:52;;;;;;;6.10;4.60;;;;;;;25.03;37.19;100778.77;115611;1201;21925;-82
2021/09/04 10:26:21;;;;;;;5.50;4.80;;;;;;;25.11;36.80;100781.79;115806;1198;21925;-83
2021/09/04 10:29:21;;;;;;;5.70;4.30;;;;;;;25.07;35.66;100785.08;115662;1201;22902;-82
2021/09/04 10:32:04;;;;;;;7.10;4.30;;;;;;;24.88;35.80;100781.99;115120;1204;21917;-82
2021/09/04 10:34:40;;;;;;;6.50;4.20;;;;;;;24.87;36.66;100784.52;115466;1200;24280;-82
2021/09/04 10:37:12;;;;;;;5.00;4.00;;;;;;;25.12;36.91;100785.37;115988;1197;21896;-82
2021/09/04 10:39:55;;;;;;;6.40;4.20;;;;;;;25.29;35.42;100782.31;116491;1192;23553;-82
2021/09/04 10:42:34;;;;;;;4.90;3.90;;;;;;;25.38;35.16;100782.40;116620;1194;22696;-82
2021/09/04 10:45:06;;;;;;;4.90;4.30;;;;;;;25.50;34.79;100782.23;116130;1198;22338;-82
2021/09/04 10:47:56;;;;;;;6.60;4.30;;;;;;;25.33;33.76;100779.22;116454;1198;23572;-82
2021/09/04 10:50:31;;;;;;;7.30;4.10;;;;;;;24.93;33.85;100775.34;116611;1196;21956;-81
2021/09/04 10:53:05;;;;;;;6.90;4.20;;;;;;;24.41;34.03;100780.45;116681;1191;21905;-83
2021/09/04 10:55:42;;;;;;;5.40;4.50;;;;;;;23.95;35.36;100779.56;116273;1193;22329;-81
2021/09/04 10:58:18;;;;;;;4.50;3.90;;;;;;;23.70;36.32;100777.14;115726;1201;24310;-83
2021/09/04 11:00:50;;;;;;;6.30;5.00;;;;;;;23.42;35.78;100776.48;115912;1203;23446;-81
2021/09/04 11:03:22;;;;;;;8.40;4.70;;;;;;;22.93;36.25;100776.50;116117;1195;22617;-83
2021/09/04 11:05:55;;;;;;;4.10;3.60;;;;;;;22.60;37.46;100775.45;116385;1193;21911;-81
2021/09/04 11:08:34;;;;;;;4.80;4.30;;;;;;;22.34;37.54;100778.50;116457;1196;23580;-82
2021/09/04 11:11:20;;;;;;;5.60;4.80;;;;;;;22.14;37.97;100779.05;116504;1195;22799;-84
2021/09/04 11:13:59;;;;;;;5.90;4.10;;;;;;;21.99;38.18;100777.88;116977;1187;21903;-82
2021/09/04 11:16:40;;;;;;;5.10;4.50;;;;;;;21.85;38.31;100778.40;117183;1188;22280;-83
2021/09/04 11:19:21;;;;;;;5.00;4.50;;;;;;;21.64;38.35;100775.46;117576;1184;21838;-82
2021/09/04 11:21:56;;;;;;;6.80;6.10;;;;;;;21.50;39.23;100771.63;117440;1182;21886;-82